Grand Princess — ZCBU5 — position and weather

sailwx.info

Track history (hours):
 
Tides and Currents Weather Stations Pressure Air Temp Water Temp Dewpoint Dewpoint Depression Visibility Wind Speed Wind Dir Waves Ship Positions

Grand Princess

Operator: Princess Cruises

Last reported at 2014-Aug-31 01:28 UTC. Time now 2014-Aug-31 02:32 UTC.
Position N 48°25' W 123°23'.

Length 289.5 m; beam 36 m; draft 8.5 m.

Type: Ship. MMSI: 310327000.

Date/timePositionNaut miles runAvg speedWind from/ knotsBaromVisibWave heightAir tempDewpointWater temp
2014-Aug-31 01:28N 48°25' W 123°23'5 5.0
2014-Aug-31 00:33N 48°20' W 123°24'1414.3
2014-Aug-30 23:33N 48°13' W 123°43'1919.5
2014-Aug-30 22:33N 48°18' W 124°11'2120.5
2014-Aug-30 21:33N 48°27' W 124°39'2120.7
2014-Aug-30 20:33N 48°29' W 125°10'2120.6
2014-Aug-30 19:33N 48°39' W 125°37'2121.1
2014-Aug-30 18:33N 48°49' W 126°05'2121.4
2014-Aug-30 17:33N 49°00' W 126°33'10719.3
2014-Aug-30 12:00N 50°12' W 128°36'2914.6 290 / 101009.310.8 2.015.512.013.2
2014-Aug-30 10:00N 50°30' W 129°12'19719.7 220 / 151009.310.8 2.014.812.413.0
2014-Aug-30 00:00N 52°54' W 132°48'36917.6 230 / 271003.510.8 2.014.812.016.0
2014-Aug-29 03:00N 58°54' W 135°12'206 4.3 220 / 61010.810.8 13.011.113.0
2014-Aug-27 03:00N 55°48' W 132°30'228 8.5 310 / 61017.510.8 0.515.010.314.0
2014-Aug-26 00:00N 52°12' W 130°24'14 7.0 230 / 141015.810.8 0.517.015.318.0
2014-Aug-25 22:00N 52°00' W 130°12'17519.4 270 / 141016.6 5.4 0.517.016.018.0
2014-Aug-25 13:00N 49°36' W 127°36'1015.6 330 / 371016.810.8 1.515.013.215.0
2014-Aug-25 12:23N 49°30' W 127°24'1618.7
2014-Aug-25 11:33N 49°20' W 127°06'1918.8
2014-Aug-25 10:33N 49°09' W 126°43'1918.8
2014-Aug-25 09:33N 48°58' W 126°20'1919.1
2014-Aug-25 08:33N 48°47' W 125°57'2019.9
2014-Aug-25 07:33N 48°37' W 125°31'1919.4
2014-Aug-25 06:33N 48°31' W 125°03'2019.5
2014-Aug-25 05:33N 48°28' W 124°34'2020.3
2014-Aug-25 04:33N 48°20' W 124°05'2120.5
2014-Aug-25 03:33N 48°15' W 123°35'1514.6
2014-Aug-25 02:33N 48°11' W 123°15'1918.9
2014-Aug-25 01:33N 48°11' W 122°46'1818.4
2014-Aug-25 00:33N 47°56' W 122°31'1818.0
2014-Aug-24 23:33N 47°38' W 122°26'2 2.1
2014-Aug-24 22:31N 47°38' W 122°23'0 0.0
2014-Aug-24 21:31N 47°38' W 122°23'0 0.0
2014-Aug-24 20:31N 47°38' W 122°23'0 0.0
2014-Aug-24 19:30N 47°38' W 122°23'0 0.0
2014-Aug-24 18:33N 47°38' W 122°23'0 0.0
2014-Aug-24 17:32N 47°38' W 122°23'0 0.0
2014-Aug-24 16:29N 47°38' W 122°23'0 0.0
2014-Aug-24 15:28N 47°38' W 122°23'0 0.0
2014-Aug-24 14:31N 47°38' W 122°23'0 0.0
2014-Aug-24 13:31N 47°38' W 122°23'4 4.5
2014-Aug-24 12:33N 47°40' W 122°28'1514.6
2014-Aug-24 11:33N 47°55' W 122°30'1414.2
2014-Aug-24 10:33N 48°07' W 122°41'1514.7
2014-Aug-24 09:33N 48°12' W 123°02'1514.6
2014-Aug-24 08:33N 48°10' W 123°23'1212.2
2014-Aug-24 07:34N 48°23' W 123°25'3 2.5
2014-Aug-24 06:32N 48°25' W 123°23'0 0.0
2014-Aug-24 05:31N 48°25' W 123°23'0 0.0
2014-Aug-24 04:28N 48°25' W 123°23'0 0.0
2014-Aug-24 03:34N 48°25' W 123°23'0 0.0
2014-Aug-24 02:30N 48°25' W 123°23'0 0.0
2014-Aug-24 01:33N 48°25' W 123°23'2 1.8
2014-Aug-24 00:34N 48°24' W 123°26'9 8.7
2014-Aug-23 23:33N 48°15' W 123°27'1110.5
2014-Aug-23 22:33N 48°13' W 123°43'1717.1
2014-Aug-23 21:33N 48°17' W 124°08'1818.2
2014-Aug-23 20:33N 48°25' W 124°32'1717.1
2014-Aug-23 19:33N 48°29' W 124°58'11114.7
2014-Aug-23 12:00N 49°36' W 127°12'23321.2 320 / 251020.6 1.014.014.014.0
2014-Aug-23 01:00N 52°06' W 131°54'42319.2 340 / 161023.010.8 1.017.414.317.0
2014-Aug-22 03:00N 58°54' W 135°12'   340 / 91020.210.8 18.013.912.0
Track history (hours):
 
Tides and Currents Weather Stations Pressure Air Temp Water Temp Dewpoint Dewpoint Depression Visibility Wind Speed Wind Dir Waves Ship Positions

Grand Princess

Operator: Princess Cruises

Last reported at 2014-Aug-31 01:28 UTC. Time now 2014-Aug-31 02:32 UTC.
Position N 48°25' W 123°23'.

Length 289.5 m; beam 36 m; draft 8.5 m.

Type: Ship. MMSI: 310327000.

Date/timePositionNaut miles runAvg speedWind from/ knotsBaromVisibWave heightAir tempDewpointWater temp
2014-Aug-31 01:28N 48°25' W 123°23'5 5.0
2014-Aug-31 00:33N 48°20' W 123°24'1414.3
2014-Aug-30 23:33N 48°13' W 123°43'1919.5
2014-Aug-30 22:33N 48°18' W 124°11'2120.5
2014-Aug-30 21:33N 48°27' W 124°39'2120.7
2014-Aug-30 20:33N 48°29' W 125°10'2120.6
2014-Aug-30 19:33N 48°39' W 125°37'2121.1
2014-Aug-30 18:33N 48°49' W 126°05'2121.4
2014-Aug-30 17:33N 49°00' W 126°33'10719.3
2014-Aug-30 12:00N 50°12' W 128°36'2914.6 290 / 101009.310.8 2.015.512.013.2
2014-Aug-30 10:00N 50°30' W 129°12'19719.7 220 / 151009.310.8 2.014.812.413.0
2014-Aug-30 00:00N 52°54' W 132°48'36917.6 230 / 271003.510.8 2.014.812.016.0
2014-Aug-29 03:00N 58°54' W 135°12'206 4.3 220 / 61010.810.8 13.011.113.0
2014-Aug-27 03:00N 55°48' W 132°30'228 8.5 310 / 61017.510.8 0.515.010.314.0
2014-Aug-26 00:00N 52°12' W 130°24'14 7.0 230 / 141015.810.8 0.517.015.318.0
2014-Aug-25 22:00N 52°00' W 130°12'17519.4 270 / 141016.6 5.4 0.517.016.018.0
2014-Aug-25 13:00N 49°36' W 127°36'1015.6 330 / 371016.810.8 1.515.013.215.0
2014-Aug-25 12:23N 49°30' W 127°24'1618.7
2014-Aug-25 11:33N 49°20' W 127°06'1918.8
2014-Aug-25 10:33N 49°09' W 126°43'1918.8
2014-Aug-25 09:33N 48°58' W 126°20'1919.1
2014-Aug-25 08:33N 48°47' W 125°57'2019.9
2014-Aug-25 07:33N 48°37' W 125°31'1919.4
2014-Aug-25 06:33N 48°31' W 125°03'2019.5
2014-Aug-25 05:33N 48°28' W 124°34'2020.3
2014-Aug-25 04:33N 48°20' W 124°05'2120.5
2014-Aug-25 03:33N 48°15' W 123°35'1514.6
2014-Aug-25 02:33N 48°11' W 123°15'1918.9
2014-Aug-25 01:33N 48°11' W 122°46'1818.4
2014-Aug-25 00:33N 47°56' W 122°31'1818.0
2014-Aug-24 23:33N 47°38' W 122°26'2 2.1
2014-Aug-24 22:31N 47°38' W 122°23'0 0.0
2014-Aug-24 21:31N 47°38' W 122°23'0 0.0
2014-Aug-24 20:31N 47°38' W 122°23'0 0.0
2014-Aug-24 19:30N 47°38' W 122°23'0 0.0
2014-Aug-24 18:33N 47°38' W 122°23'0 0.0
2014-Aug-24 17:32N 47°38' W 122°23'0 0.0
2014-Aug-24 16:29N 47°38' W 122°23'0 0.0
2014-Aug-24 15:28N 47°38' W 122°23'0 0.0
2014-Aug-24 14:31N 47°38' W 122°23'0 0.0
2014-Aug-24 13:31N 47°38' W 122°23'4 4.5
2014-Aug-24 12:33N 47°40' W 122°28'1514.6
2014-Aug-24 11:33N 47°55' W 122°30'1414.2
2014-Aug-24 10:33N 48°07' W 122°41'1514.7
2014-Aug-24 09:33N 48°12' W 123°02'1514.6
2014-Aug-24 08:33N 48°10' W 123°23'1212.2
2014-Aug-24 07:34N 48°23' W 123°25'3 2.5
2014-Aug-24 06:32N 48°25' W 123°23'0 0.0
2014-Aug-24 05:31N 48°25' W 123°23'0 0.0
2014-Aug-24 04:28N 48°25' W 123°23'0 0.0
2014-Aug-24 03:34N 48°25' W 123°23'0 0.0
2014-Aug-24 02:30N 48°25' W 123°23'0 0.0
2014-Aug-24 01:33N 48°25' W 123°23'2 1.8
2014-Aug-24 00:34N 48°24' W 123°26'9 8.7
2014-Aug-23 23:33N 48°15' W 123°27'1110.5
2014-Aug-23 22:33N 48°13' W 123°43'1717.1
2014-Aug-23 21:33N 48°17' W 124°08'1818.2
2014-Aug-23 20:33N 48°25' W 124°32'1717.1
2014-Aug-23 19:33N 48°29' W 124°58'11114.7
2014-Aug-23 12:00N 49°36' W 127°12'23321.2 320 / 251020.6 1.014.014.014.0
2014-Aug-23 01:00N 52°06' W 131°54'42319.2 340 / 161023.010.8 1.017.414.317.0
2014-Aug-22 03:00N 58°54' W 135°12'   340 / 91020.210.8 18.013.912.0

Dump ship's entire track history